Time;durP1;ratioP1;P1;durP2;ratioP2;P2;SDS_P1;SDS_P2;PMS_P1;PMS_P2;Temp;Humidity;BMP_temperature;BMP_pressure;BME280_temperature;BME280_humidity;BME280_pressure;Samples;Min_cycle;Max_cycle;Signal;HPM_P1;HPM_P2
2021/06/09 00:01:32;;;;;;;1.17;1.08;;;16.50;99.90;;;;;;5109571;28;20231;-69
2021/06/09 00:03:58;;;;;;;2.17;1.23;;;16.60;99.90;;;;;;5108960;28;20158;-69
2021/06/09 00:06:24;;;;;;;1.23;1.23;;;16.60;99.90;;;;;;5109586;28;20162;-70
2021/06/09 00:08:50;;;;;;;1.40;1.30;;;16.60;99.90;;;;;;5109559;28;20174;-70
2021/06/09 00:11:16;;;;;;;0.63;0.63;;;16.60;99.90;;;;;;5109459;28;20667;-71
2021/06/09 00:13:42;;;;;;;1.27;0.90;;;16.70;99.90;;;;;;5089302;28;20172;-70
2021/06/09 00:16:12;;;;;;;4.85;2.28;;;16.70;99.90;;;;;;5089274;28;20198;-70
2021/06/09 00:18:39;;;;;;;2.92;1.05;;;16.90;99.90;;;;;;5088890;28;20179;-70
2021/06/09 00:21:05;;;;;;;1.48;1.38;;;16.80;99.90;;;;;;5088975;28;20191;-70
2021/06/09 00:23:31;;;;;;;1.75;1.20;;;16.80;99.90;;;;;;5088452;28;20203;-71
2021/06/09 00:26:01;;;;;;;0.50;0.50;;;16.80;99.90;;;;;;5089054;28;20162;-71
2021/06/09 00:28:28;;;;;;;0.90;0.90;;;17.00;99.90;;;;;;5088999;28;20171;-71
2021/06/09 00:30:54;;;;;;;2.17;2.03;;;17.10;99.90;;;;;;5089128;28;20633;-71
2021/06/09 00:33:20;;;;;;;0.52;0.50;;;17.00;99.90;;;;;;5088857;28;20267;-71
2021/06/09 00:35:47;;;;;;;1.17;0.85;;;17.10;99.90;;;;;;5089013;28;20212;-71
2021/06/09 00:38:14;;;;;;;0.77;0.77;;;17.00;99.90;;;;;;5087442;28;20168;-71
2021/06/09 00:40:40;;;;;;;0.40;0.40;;;17.00;99.90;;;;;;5088730;28;20223;-71
2021/06/09 00:43:08;;;;;;;1.38;1.38;;;17.00;99.90;;;;;;5088643;28;20621;-71
2021/06/09 00:45:41;;;;;;;1.55;1.45;;;17.00;99.90;;;;;;5088770;28;20167;-71
2021/06/09 00:48:07;;;;;;;0.55;0.40;;;16.90;99.90;;;;;;5088845;28;20152;-71
2021/06/09 00:50:34;;;;;;;1.75;1.65;;;17.00;99.90;;;;;;5088761;28;20206;-71
2021/06/09 00:55:45;;;;;;;0.82;0.82;;;17.20;99.90;;;;;;5088965;28;20190;-71
2021/06/09 00:58:12;;;;;;;26.10;1.75;;;17.30;99.90;;;;;;5088700;28;20160;-71
2021/06/09 01:00:40;;;;;;;0.40;0.40;;;17.30;99.90;;;;;;5088726;28;20166;-71
2021/06/09 01:03:06;;;;;;;2.10;1.90;;;17.70;99.90;;;;;;5070361;28;20195;-70
2021/06/09 01:05:34;;;;;;;1.45;1.35;;;18.00;99.90;;;;;;5088590;28;20160;-70
2021/06/09 01:08:04;;;;;;;1.95;1.30;;;18.10;99.90;;;;;;5088652;28;20581;-70
2021/06/09 01:10:31;;;;;;;0.60;0.60;;;18.10;99.90;;;;;;5088521;28;20155;-70
2021/06/09 01:12:58;;;;;;;1.00;0.98;;;18.10;99.90;;;;;;5088428;28;20179;-70
2021/06/09 01:15:25;;;;;;;1.33;1.17;;;18.00;99.90;;;;;;5073762;28;20194;-70
2021/06/09 01:17:52;;;;;;;0.68;0.68;;;18.00;99.90;;;;;;5093120;28;20164;-71
2021/06/09 01:20:19;;;;;;;1.27;1.17;;;17.90;99.90;;;;;;5093066;28;20156;-70
2021/06/09 01:22:45;;;;;;;1.88;1.40;;;17.70;99.90;;;;;;5075019;28;20206;-70
2021/06/09 01:25:11;;;;;;;0.52;0.52;;;17.50;99.90;;;;;;5092889;28;20188;-70
2021/06/09 01:27:38;;;;;;;0.60;0.60;;;17.50;99.90;;;;;;5092989;28;20153;-70
2021/06/09 01:30:10;;;;;;;2.40;1.45;;;17.40;99.90;;;;;;5092867;28;20167;-71
2021/06/09 01:32:37;;;;;;;1.55;0.95;;;17.30;99.90;;;;;;5092858;28;20164;-71
2021/06/09 01:35:05;;;;;;;1.15;1.08;;;17.10;99.90;;;;;;5092798;28;20217;-71
2021/06/09 01:37:32;;;;;;;3.25;2.10;;;17.10;99.90;;;;;;5092500;28;20239;-71
2021/06/09 01:39:59;;;;;;;0.50;0.45;;;17.00;99.90;;;;;;5074533;28;20171;-71
2021/06/09 01:42:27;;;;;;;1.73;1.13;;;17.10;99.90;;;;;;5092637;28;20255;-70
2021/06/09 01:44:53;;;;;;;2.10;1.90;;;17.20;99.90;;;;;;5092502;28;20188;-70
2021/06/09 01:47:20;;;;;;;1.90;1.75;;;17.20;99.90;;;;;;5092530;28;20152;-71
2021/06/09 01:49:46;;;;;;;1.27;1.13;;;17.20;99.90;;;;;;5092484;28;20187;-71
2021/06/09 01:52:12;;;;;;;0.77;0.73;;;17.20;99.90;;;;;;5092424;28;20186;-71
2021/06/09 01:54:39;;;;;;;1.00;1.00;;;17.20;99.90;;;;;;5074322;28;20224;-71
2021/06/09 01:57:06;;;;;;;2.53;2.20;;;17.30;99.90;;;;;;5092346;28;20163;-71
2021/06/09 01:59:34;;;;;;;3.58;1.55;;;17.30;99.90;;;;;;5092316;28;20160;-71
2021/06/09 02:02:00;;;;;;;2.22;1.27;;;17.30;99.90;;;;;;5074202;28;20253;-71
2021/06/09 02:04:28;;;;;;;1.40;1.30;;;17.40;99.90;;;;;;5092116;28;20184;-71
2021/06/09 02:06:55;;;;;;;3.42;1.23;;;17.50;99.90;;;;;;5092237;28;20281;-71
2021/06/09 02:09:22;;;;;;;1.10;1.05;;;17.50;99.90;;;;;;5092183;28;20152;-71
2021/06/09 02:11:50;;;;;;;2.33;2.15;;;17.50;99.90;;;;;;5091962;28;20218;-70
2021/06/09 02:14:17;;;;;;;1.02;0.95;;;17.60;99.90;;;;;;5073854;28;20195;-71
2021/06/09 02:16:46;;;;;;;0.70;0.70;;;17.50;99.90;;;;;;5073970;28;20195;-70
2021/06/09 02:19:13;;;;;;;1.13;1.02;;;17.50;99.90;;;;;;5074066;28;20179;-70
2021/06/09 02:21:41;;;;;;;2.80;1.65;;;17.40;99.90;;;;;;5092027;28;20188;-69
2021/06/09 02:24:08;;;;;;;2.08;1.92;;;17.50;99.90;;;;;;5091935;28;20184;-69
2021/06/09 02:26:37;;;;;;;2.13;2.03;;;17.50;99.90;;;;;;5090890;28;20153;-70
2021/06/09 02:29:04;;;;;;;0.43;0.43;;;17.60;99.90;;;;;;5091758;28;20163;-69
2021/06/09 02:31:30;;;;;;;1.95;1.75;;;17.50;99.90;;;;;;5091446;28;20274;-70
2021/06/09 02:33:57;;;;;;;1.92;1.45;;;17.50;99.90;;;;;;5073596;28;20673;-70
2021/06/09 02:36:24;;;;;;;1.00;1.00;;;17.40;99.90;;;;;;5091620;28;20164;-70
2021/06/09 02:38:51;;;;;;;1.65;1.55;;;17.30;99.90;;;;;;5091333;28;20239;-69
2021/06/09 02:41:17;;;;;;;3.20;2.17;;;17.40;99.90;;;;;;5073191;28;20230;-69
2021/06/09 02:43:45;;;;;;;1.15;1.05;;;17.30;99.90;;;;;;5091219;28;20203;-69
2021/06/09 02:46:18;;;;;;;1.15;1.08;;;17.10;99.90;;;;;;5091469;28;20152;-69
2021/06/09 02:49:10;;;;;;;1.35;1.27;;;17.20;99.90;;;;;;5091232;28;20152;-69
2021/06/09 02:51:40;;;;;;;4.65;3.47;;;17.20;99.90;;;;;;5091266;28;20178;-69
2021/06/09 02:54:36;;;;;;;1.50;1.17;;;17.10;99.90;;;;;;5091081;28;20296;-69
2021/06/09 02:57:24;;;;;;;1.25;1.15;;;17.20;99.90;;;;;;5090964;28;20171;-69
2021/06/09 02:59:56;;;;;;;0.70;0.63;;;17.30;99.90;;;;;;5091126;28;20164;-69
2021/06/09 03:02:29;;;;;;;2.78;1.83;;;17.30;99.90;;;;;;5091097;28;20215;-69
2021/06/09 03:05:16;;;;;;;0.93;0.93;;;17.40;99.90;;;;;;5090866;28;20192;-69
2021/06/09 03:07:57;;;;;;;1.45;1.35;;;17.40;99.90;;;;;;5090953;28;20172;-69
2021/06/09 03:10:36;;;;;;;1.83;1.73;;;17.40;99.90;;;;;;5090944;28;20151;-70
2021/06/09 03:14:00;;;;;;;7.03;1.90;;;17.30;99.90;;;;;;5072510;28;20532;-69
2021/06/09 03:16:35;;;;;;;2.55;1.95;;;17.20;99.90;;;;;;5009271;28;20241;-69
2021/06/09 03:19:10;;;;;;;1.67;1.25;;;17.20;99.90;;;;;;4992569;28;20186;-69
2021/06/09 03:21:56;;;;;;;4.75;2.83;;;17.20;99.90;;;;;;5009038;28;20202;-69
2021/06/09 03:24:32;;;;;;;1.75;1.33;;;17.20;99.90;;;;;;4992669;28;20198;-69
2021/06/09 03:27:08;;;;;;;0.52;0.52;;;17.10;99.90;;;;;;5009157;28;20217;-69
2021/06/09 03:29:39;;;;;;;3.72;1.67;;;17.00;99.90;;;;;;5008874;28;20214;-69
2021/06/09 03:32:17;;;;;;;1.48;1.40;;;17.00;99.90;;;;;;5008771;28;20250;-69
2021/06/09 03:34:50;;;;;;;0.60;0.60;;;17.00;99.90;;;;;;5008709;28;20600;-69
2021/06/09 03:37:22;;;;;;;0.93;0.80;;;17.10;99.90;;;;;;5014983;28;20185;-69
2021/06/09 03:39:56;;;;;;;1.50;1.42;;;17.20;99.90;;;;;;5028302;28;20193;-69
2021/06/09 03:42:25;;;;;;;1.20;1.10;;;17.20;99.90;;;;;;5028087;28;20220;-69
2021/06/09 03:44:53;;;;;;;4.50;1.20;;;17.20;99.90;;;;;;5028024;28;20201;-69
2021/06/09 03:47:21;;;;;;;1.15;1.13;;;17.40;99.90;;;;;;5028322;28;20166;-69
2021/06/09 03:49:48;;;;;;;2.22;2.13;;;17.40;99.90;;;;;;5011802;28;20170;-69
2021/06/09 03:52:15;;;;;;;1.08;1.08;;;17.50;99.90;;;;;;5060499;28;20188;-69
2021/06/09 03:54:45;;;;;;;1.67;1.58;;;17.50;99.90;;;;;;5069879;28;20199;-69
2021/06/09 03:57:13;;;;;;;0.75;0.75;;;17.50;99.90;;;;;;5068526;28;20176;-70
2021/06/09 03:59:39;;;;;;;1.65;1.55;;;17.40;99.90;;;;;;5069700;28;20224;-70
2021/06/09 04:02:07;;;;;;;0.80;0.80;;;17.40;99.90;;;;;;5068314;28;20192;-69
2021/06/09 04:04:35;;;;;;;1.05;0.90;;;17.50;99.90;;;;;;5069699;28;20184;-70
2021/06/09 04:07:02;;;;;;;2.13;1.77;;;17.50;99.90;;;;;;5069707;28;20168;-70
2021/06/09 04:09:30;;;;;;;0.63;0.63;;;17.50;99.90;;;;;;5069629;28;20179;-69
2021/06/09 04:12:00;;;;;;;2.50;1.35;;;17.50;99.90;;;;;;5074553;28;20179;-69
2021/06/09 04:14:35;;;;;;;1.10;1.10;;;17.60;99.90;;;;;;5089159;28;20225;-70
2021/06/09 04:17:03;;;;;;;1.38;1.15;;;17.50;99.90;;;;;;5089483;28;20164;-70
2021/06/09 04:19:32;;;;;;;1.63;1.52;;;17.70;99.90;;;;;;5071637;28;20239;-70
2021/06/09 04:22:01;;;;;;;0.73;0.73;;;17.80;99.90;;;;;;5089442;28;20211;-70
2021/06/09 04:24:27;;;;;;;4.25;1.67;;;17.80;99.90;;;;;;5089438;28;20671;-70
2021/06/09 04:26:53;;;;;;;1.48;1.27;;;17.80;99.90;;;;;;5071245;28;20160;-69
2021/06/09 04:29:22;;;;;;;1.17;1.05;;;17.90;99.90;;;;;;5089423;28;20178;-70
2021/06/09 04:31:48;;;;;;;1.35;1.25;;;18.00;99.90;;;;;;5071251;28;20164;-70
2021/06/09 04:34:14;;;;;;;2.05;1.58;;;18.10;99.90;;;;;;5089204;28;20202;-69
2021/06/09 04:36:41;;;;;;;1.40;1.33;;;18.30;99.90;;;;;;5089147;28;20180;-69
2021/06/09 04:39:09;;;;;;;1.42;1.33;;;18.50;99.90;;;;;;5107163;28;20175;-69
2021/06/09 04:41:35;;;;;;;4.88;2.08;;;18.60;99.90;;;;;;5090878;28;20223;-69
2021/06/09 04:44:01;;;;;;;1.50;1.40;;;18.70;99.90;;;;;;5090905;28;20264;-70
2021/06/09 04:46:29;;;;;;;2.45;2.33;;;18.70;99.90;;;;;;5091083;28;20167;-69
2021/06/09 04:48:56;;;;;;;3.65;2.47;;;18.70;99.90;;;;;;5109000;28;20177;-69
2021/06/09 04:51:28;;;;;;;1.00;1.00;;;18.80;99.90;;;;;;5109255;28;20163;-69
2021/06/09 04:53:53;;;;;;;1.15;1.13;;;18.70;99.90;;;;;;5108929;28;20277;-69
2021/06/09 04:56:19;;;;;;;1.67;1.58;;;18.80;99.90;;;;;;5109017;28;20167;-69
2021/06/09 04:58:45;;;;;;;3.85;1.52;;;18.80;99.90;;;;;;5109283;28;20502;-68
2021/06/09 05:01:11;;;;;;;0.88;0.88;;;18.90;99.90;;;;;;5109023;28;20216;-69
2021/06/09 05:03:37;;;;;;;1.73;1.63;;;18.90;99.90;;;;;;5109002;28;20198;-69
2021/06/09 05:06:03;;;;;;;5.57;2.67;;;19.00;99.90;;;;;;5109053;28;20219;-69
2021/06/09 05:08:29;;;;;;;1.27;1.27;;;19.10;99.90;;;;;;5109202;28;20679;-69
2021/06/09 05:10:55;;;;;;;3.88;2.95;;;19.20;99.90;;;;;;5108918;28;20155;-69
2021/06/09 05:13:28;;;;;;;1.67;1.58;;;19.30;99.90;;;;;;5091387;28;20659;-69
2021/06/09 05:16:05;;;;;;;2.50;2.17;;;19.20;99.90;;;;;;5070703;28;20164;-68
2021/06/09 05:18:58;;;;;;;2.95;1.75;;;19.30;99.90;;;;;;5088307;28;20158;-69
2021/06/09 05:21:29;;;;;;;2.75;2.33;;;19.30;99.90;;;;;;5085313;28;20207;-68
2021/06/09 05:23:56;;;;;;;4.68;1.88;;;19.50;99.90;;;;;;5088390;28;20219;-68
2021/06/09 05:26:24;;;;;;;1.20;1.20;;;19.60;99.90;;;;;;5070425;28;20168;-69
2021/06/09 05:29:01;;;;;;;2.60;2.25;;;19.70;99.90;;;;;;5088567;28;20173;-68
2021/06/09 05:31:28;;;;;;;4.03;1.85;;;19.60;99.90;;;;;;5070419;28;20254;-69
2021/06/09 05:33:55;;;;;;;1.60;1.50;;;19.80;99.90;;;;;;5088257;28;20195;-69
2021/06/09 05:36:22;;;;;;;2.33;1.77;;;20.10;99.90;;;;;;5088666;28;20160;-68
2021/06/09 05:38:48;;;;;;;1.80;1.63;;;20.50;99.90;;;;;;5103822;28;20175;-68
2021/06/09 05:41:14;;;;;;;2.72;2.25;;;20.70;99.90;;;;;;5108437;28;20215;-68
2021/06/09 05:43:41;;;;;;;17.77;2.30;;;20.90;99.90;;;;;;5108790;28;20167;-68
2021/06/09 05:46:09;;;;;;;4.78;1.40;;;21.00;99.90;;;;;;5108695;28;20164;-68
2021/06/09 05:48:43;;;;;;;6.32;1.52;;;21.00;99.90;;;;;;5108685;28;20200;-69
2021/06/09 05:51:11;;;;;;;1.75;1.65;;;21.10;99.90;;;;;;5108564;28;20182;-69
2021/06/09 05:53:38;;;;;;;2.03;1.38;;;21.10;99.90;;;;;;5086696;28;20176;-68
2021/06/09 05:56:05;;;;;;;1.50;1.15;;;21.20;99.90;;;;;;5069658;28;20200;-68
2021/06/09 05:58:31;;;;;;;1.55;1.40;;;21.40;99.90;;;;;;5088027;28;20205;-69
2021/06/09 06:01:00;;;;;;;1.25;1.25;;;21.60;99.90;;;;;;5088604;28;20156;-69
2021/06/09 06:03:27;;;;;;;4.90;1.58;;;21.70;99.90;;;;;;5091788;28;20152;-69
2021/06/09 06:06:02;;;;;;;1.02;0.98;;;21.60;99.90;;;;;;5091863;28;20184;-69
2021/06/09 06:08:29;;;;;;;2.63;2.10;;;21.80;99.90;;;;;;5091828;28;20152;-69
2021/06/09 06:11:00;;;;;;;1.85;1.73;;;22.00;99.90;;;;;;5073245;28;20167;-69
2021/06/09 06:13:27;;;;;;;2.53;2.33;;;22.20;99.90;;;;;;5091590;28;20186;-69
2021/06/09 06:15:56;;;;;;;3.28;1.63;;;22.20;99.90;;;;;;5091697;28;20191;-69
2021/06/09 06:18:36;;;;;;;1.75;1.65;;;22.10;99.90;;;;;;5091226;28;20211;-69
2021/06/09 06:21:05;;;;;;;2.65;2.28;;;22.30;99.90;;;;;;5091844;28;20202;-68
2021/06/09 06:23:31;;;;;;;1.98;1.45;;;22.50;99.90;;;;;;5091708;28;20160;-68
2021/06/09 06:25:58;;;;;;;1.50;1.40;;;22.70;99.90;;;;;;5091445;28;20207;-68
2021/06/09 06:28:25;;;;;;;5.85;1.35;;;23.00;99.90;;;;;;5073783;28;20171;-69
2021/06/09 06:30:52;;;;;;;1.67;1.58;;;23.30;99.90;;;;;;5091397;28;20159;-69
2021/06/09 06:33:22;;;;;;;2.90;2.22;;;23.70;99.90;;;;;;5091500;28;20643;-69
2021/06/09 06:35:49;;;;;;;4.60;2.00;;;23.80;99.90;;;;;;5091225;28;20191;-68
2021/06/09 06:38:16;;;;;;;1.73;1.60;;;24.20;99.90;;;;;;5098339;28;20205;-68
2021/06/09 06:40:43;;;;;;;1.50;1.40;;;24.60;99.90;;;;;;5102655;28;20226;-68
2021/06/09 06:43:09;;;;;;;1.48;1.38;;;24.80;99.90;;;;;;5091267;28;20198;-68
2021/06/09 06:45:35;;;;;;;3.80;1.40;;;24.70;99.90;;;;;;5091271;28;20164;-68
2021/06/09 06:48:02;;;;;;;1.98;1.67;;;24.20;99.90;;;;;;5091254;28;20616;-68
2021/06/09 06:50:28;;;;;;;1.00;0.90;;;24.10;99.90;;;;;;5090921;28;20214;-68
2021/06/09 06:52:56;;;;;;;1.67;1.58;;;23.80;99.90;;;;;;5090810;28;20243;-69
2021/06/09 06:55:23;;;;;;;1.10;1.00;;;25.00;99.90;;;;;;5090878;28;20246;-69
2021/06/09 06:57:50;;;;;;;3.88;2.05;;;25.20;99.90;;;;;;5091050;28;20237;-69
2021/06/09 07:00:21;;;;;;;2.22;1.42;;;25.20;99.90;;;;;;5090731;28;20215;-68
2021/06/09 07:02:56;;;;;;;2.55;1.48;;;25.10;99.90;;;;;;5072637;28;20198;-69
2021/06/09 07:05:25;;;;;;;2.13;1.27;;;26.10;99.90;;;;;;5090834;28;20159;-69
2021/06/09 07:07:52;;;;;;;1.20;1.10;;;27.40;99.90;;;;;;5072800;28;20163;-69
2021/06/09 07:10:19;;;;;;;4.28;1.67;;;28.70;99.90;;;;;;5090706;28;20166;-68
2021/06/09 07:12:46;;;;;;;1.27;1.15;;;28.70;99.90;;;;;;5090442;28;20167;-68
2021/06/09 07:15:18;;;;;;;1.35;1.25;;;28.40;99.90;;;;;;5090626;28;20156;-69
2021/06/09 07:17:49;;;;;;;2.58;1.75;;;28.10;99.90;;;;;;5090325;28;20179;-68
2021/06/09 07:20:22;;;;;;;1.40;1.30;;;26.80;99.90;;;;;;5090091;28;20163;-69
2021/06/09 07:22:49;;;;;;;2.05;0.98;;;26.90;99.90;;;;;;5072574;28;20195;-69
2021/06/09 07:25:16;;;;;;;0.63;0.63;;;28.00;99.90;;;;;;5090514;28;20159;-69
2021/06/09 07:27:44;;;;;;;1.48;1.17;;;29.10;99.90;;;;;;5090491;28;20156;-69
2021/06/09 07:30:14;;;;;;;1.30;1.20;;;28.20;99.90;;;;;;5090350;28;20160;-68
2021/06/09 07:32:44;;;;;;;0.60;0.50;;;28.60;99.90;;;;;;5090369;28;20211;-68
2021/06/09 07:35:12;;;;;;;2.15;1.42;;;28.90;99.90;;;;;;5072508;28;20172;-68
2021/06/09 07:37:46;;;;;;;1.95;1.00;;;28.10;99.90;;;;;;5085858;28;20172;-69
2021/06/09 07:40:19;;;;;;;8.18;1.85;;;27.30;99.90;;;;;;5089838;28;20218;-69
2021/06/09 07:42:49;;;;;;;1.08;1.00;;;27.80;99.90;;;;;;5090068;28;20274;-68
2021/06/09 07:45:18;;;;;;;1.35;1.25;;;28.40;99.90;;;;;;5090080;28;20152;-68
2021/06/09 07:47:47;;;;;;;0.93;0.93;;;28.80;99.90;;;;;;5072059;28;20164;-69
2021/06/09 07:50:14;;;;;;;3.40;0.98;;;28.70;99.90;;;;;;5089967;28;20154;-69
2021/06/09 07:52:44;;;;;;;0.68;0.68;;;29.10;99.90;;;;;;5089959;28;20163;-69
2021/06/09 07:55:11;;;;;;;2.20;2.00;;;28.90;99.90;;;;;;5089925;28;20160;-69
2021/06/09 07:57:41;;;;;;;2.20;1.20;;;29.50;99.90;;;;;;5089986;28;20178;-68
2021/06/09 08:00:12;;;;;;;1.23;1.10;;;29.10;99.90;;;;;;5089809;28;20156;-69
2021/06/09 08:02:42;;;;;;;2.53;1.05;;;29.60;99.90;;;;;;5089635;28;20222;-69
2021/06/09 08:05:10;;;;;;;1.10;1.00;;;30.80;99.90;;;;;;5071831;28;20155;-69
2021/06/09 08:07:40;;;;;;;1.90;1.80;;;30.00;99.90;;;;;;5089541;28;20526;-69
2021/06/09 08:10:09;;;;;;;1.30;1.20;;;30.00;99.90;;;;;;5071565;28;20159;-69
2021/06/09 08:12:35;;;;;;;1.00;1.00;;;30.20;99.90;;;;;;5089547;28;20231;-69
2021/06/09 08:15:03;;;;;;;2.25;1.77;;;31.10;99.90;;;;;;5071586;28;20572;-69
2021/06/09 08:17:29;;;;;;;0.75;0.75;;;30.50;99.90;;;;;;5089513;28;20223;-69
2021/06/09 08:19:55;;;;;;;3.35;1.08;;;30.20;99.90;;;;;;5089498;28;20148;-69
2021/06/09 08:22:21;;;;;;;1.13;1.00;;;31.60;99.90;;;;;;5071510;28;20206;-69
2021/06/09 08:24:47;;;;;;;1.02;1.00;;;30.80;99.90;;;;;;5088862;28;20160;-69
2021/06/09 08:27:15;;;;;;;3.90;1.77;;;32.20;99.90;;;;;;5089430;28;20158;-69
2021/06/09 08:29:41;;;;;;;1.25;0.85;;;31.60;99.90;;;;;;5071224;28;20167;-70
2021/06/09 08:32:08;;;;;;;1.88;0.82;;;29.70;99.90;;;;;;5071198;28;20195;-69
2021/06/09 08:34:34;;;;;;;1.70;1.50;;;29.50;99.90;;;;;;5089141;28;20164;-69
2021/06/09 08:37:01;;;;;;;1.98;1.88;;;29.50;99.90;;;;;;5089585;28;20186;-68
2021/06/09 08:39:27;;;;;;;1.23;1.13;;;29.60;99.90;;;;;;5109249;28;20164;-68
2021/06/09 08:41:57;;;;;;;1.92;1.70;;;31.30;99.90;;;;;;5108826;28;20223;-67
2021/06/09 08:44:24;;;;;;;1.77;1.50;;;32.00;99.90;;;;;;5091180;28;20190;-68
2021/06/09 08:46:51;;;;;;;1.58;1.48;;;29.80;99.90;;;;;;5109531;28;20619;-67
2021/06/09 08:49:18;;;;;;;1.15;1.05;;;29.30;99.90;;;;;;5091197;28;20171;-67
2021/06/09 08:51:45;;;;;;;1.17;1.08;;;28.30;99.90;;;;;;5109208;28;20243;-67
2021/06/09 08:54:11;;;;;;;0.90;0.90;;;27.70;99.90;;;;;;5109537;28;20182;-67
2021/06/09 08:56:38;;;;;;;1.52;0.90;;;28.20;99.90;;;;;;5090896;28;20207;-67
2021/06/09 08:59:06;;;;;;;0.63;0.63;;;29.70;99.90;;;;;;5088977;28;20584;-67
2021/06/09 09:01:33;;;;;;;0.57;0.57;;;30.10;99.90;;;;;;5088977;28;20213;-67
2021/06/09 09:04:00;;;;;;;1.33;1.20;;;30.80;99.90;;;;;;5088719;28;20155;-67
2021/06/09 09:06:26;;;;;;;1.23;1.13;;;31.60;99.90;;;;;;5088978;28;20199;-67
2021/06/09 09:08:53;;;;;;;1.88;1.40;;;32.00;99.90;;;;;;5089025;28;20152;-67
2021/06/09 09:11:21;;;;;;;1.50;1.40;;;32.00;99.90;;;;;;5088775;28;20185;-67
2021/06/09 09:13:48;;;;;;;1.63;1.33;;;31.40;99.90;;;;;;5088952;28;20156;-67
2021/06/09 09:16:14;;;;;;;2.08;1.40;;;31.00;99.90;;;;;;5088664;28;20199;-67
2021/06/09 09:18:45;;;;;;;1.05;1.02;;;30.10;99.90;;;;;;5088748;28;20217;-68
2021/06/09 09:21:14;;;;;;;1.42;1.33;;;29.70;99.90;;;;;;5088807;28;20155;-67
2021/06/09 09:23:47;;;;;;;1.83;1.67;;;29.10;99.90;;;;;;5088317;28;20151;-67
2021/06/09 09:26:31;;;;;;;1.17;1.08;;;28.20;99.90;;;;;;5088620;28;20191;-67
2021/06/09 09:29:21;;;;;;;6.18;1.45;;;28.10;99.90;;;;;;5088755;28;20159;-67
2021/06/09 09:31:53;;;;;;;2.35;1.85;;;28.30;99.90;;;;;;5088648;28;20163;-66
2021/06/09 09:34:50;;;;;;;2.42;2.22;;;29.70;99.90;;;;;;5088788;28;20164;-67
2021/06/09 09:37:23;;;;;;;0.73;0.73;;;31.30;99.90;;;;;;5069059;28;20199;-67
2021/06/09 09:39:52;;;;;;;1.55;1.13;;;31.10;99.90;;;;;;5092381;28;20218;-67
2021/06/09 09:42:34;;;;;;;4.22;1.20;;;30.70;99.90;;;;;;5074414;28;20209;-67
2021/06/09 09:45:24;;;;;;;1.02;0.95;;;29.80;99.90;;;;;;5092356;28;20187;-66
2021/06/09 09:48:09;;;;;;;1.30;1.15;;;28.70;99.90;;;;;;5092263;28;20231;-66
2021/06/09 09:50:36;;;;;;;1.00;1.00;;;26.70;99.90;;;;;;5092392;28;20210;-66
2021/06/09 09:53:23;;;;;;;0.65;0.55;;;25.60;99.90;;;;;;5074184;28;20183;-66
2021/06/09 09:56:04;;;;;;;0.52;0.52;;;25.20;99.90;;;;;;5091832;28;20268;-66
2021/06/09 09:58:33;;;;;;;2.33;2.13;;;25.20;99.90;;;;;;5092239;28;20160;-66
2021/06/09 10:01:10;;;;;;;2.85;1.15;;;24.90;99.90;;;;;;5091918;28;20212;-66
2021/06/09 10:03:38;;;;;;;1.40;1.30;;;23.90;99.90;;;;;;5068549;28;20375;-66
2021/06/09 10:06:18;;;;;;;0.70;0.70;;;22.80;99.90;;;;;;5079471;28;20224;-66
2021/06/09 10:08:44;;;;;;;0.70;0.70;;;22.10;99.90;;;;;;5088166;28;20167;-66
2021/06/09 10:11:14;;;;;;;4.25;1.13;;;21.90;99.90;;;;;;5073761;28;20203;-66
2021/06/09 10:13:41;;;;;;;1.98;1.67;;;22.00;99.90;;;;;;5053693;28;20169;-66
2021/06/09 10:16:34;;;;;;;2.83;1.80;;;22.10;99.90;;;;;;5058576;28;20195;-66
2021/06/09 10:19:02;;;;;;;6.95;1.52;;;22.20;99.90;;;;;;5073828;28;20170;-66
2021/06/09 10:21:29;;;;;;;0.75;0.75;;;22.20;99.90;;;;;;5091644;28;20190;-65
2021/06/09 10:24:01;;;;;;;0.73;0.73;;;22.20;99.90;;;;;;5091762;28;20520;-66
2021/06/09 10:26:28;;;;;;;1.38;1.23;;;22.80;99.90;;;;;;5091574;28;20236;-66
2021/06/09 10:28:57;;;;;;;1.17;1.13;;;23.20;99.90;;;;;;5091552;28;20159;-66
2021/06/09 10:31:29;;;;;;;1.90;1.40;;;23.70;99.90;;;;;;5073622;28;20160;-66
2021/06/09 10:33:56;;;;;;;1.70;0.85;;;24.40;99.90;;;;;;5091530;28;20221;-66
2021/06/09 10:36:22;;;;;;;1.25;1.08;;;24.70;99.90;;;;;;5091459;28;20191;-66
2021/06/09 10:38:49;;;;;;;0.60;0.60;;;24.60;99.90;;;;;;5100853;28;20234;-66
2021/06/09 10:41:16;;;;;;;0.47;0.47;;;24.40;99.90;;;;;;5110087;28;20245;-66
2021/06/09 10:43:45;;;;;;;0.80;0.80;;;24.30;99.90;;;;;;5091358;28;20185;-67
2021/06/09 10:46:12;;;;;;;0.40;0.40;;;24.30;99.90;;;;;;5090886;28;20198;-66
2021/06/09 10:48:41;;;;;;;0.95;0.95;;;24.20;99.90;;;;;;5090903;28;20159;-66
2021/06/09 10:51:08;;;;;;;1.98;1.27;;;24.20;99.90;;;;;;5091144;28;20206;-66
2021/06/09 10:53:36;;;;;;;1.42;1.02;;;24.20;99.90;;;;;;5091121;28;20183;-67
2021/06/09 10:56:04;;;;;;;19.35;1.55;;;24.20;99.90;;;;;;5090855;28;20187;-66
2021/06/09 10:58:29;;;;;;;0.35;0.35;;;23.80;99.90;;;;;;5091137;28;20176;-66
2021/06/09 11:01:00;;;;;;;0.63;0.63;;;23.60;99.90;;;;;;5090696;28;20167;-66
2021/06/09 11:03:27;;;;;;;0.85;0.85;;;23.50;99.90;;;;;;5090736;28;20179;-67
2021/06/09 11:05:53;;;;;;;1.52;1.52;;;23.70;99.90;;;;;;5090760;28;20499;-66
2021/06/09 11:08:19;;;;;;;1.00;1.00;;;23.90;99.90;;;;;;5090448;28;20162;-66
2021/06/09 11:10:49;;;;;;;0.98;0.98;;;24.10;99.90;;;;;;5090004;28;20183;-67
2021/06/09 11:13:32;;;;;;;1.48;1.38;;;24.30;99.90;;;;;;5090252;28;20624;-67
2021/06/09 11:16:13;;;;;;;0.60;0.60;;;23.80;99.90;;;;;;5072117;28;20213;-65
2021/06/09 11:18:41;;;;;;;1.95;1.75;;;22.70;99.90;;;;;;5090351;28;20171;-65
2021/06/09 11:21:09;;;;;;;2.22;1.73;;;21.90;99.90;;;;;;5090452;28;20156;-68
2021/06/09 11:23:40;;;;;;;0.95;0.90;;;21.40;99.90;;;;;;5089357;28;20159;-67
2021/06/09 11:26:22;;;;;;;1.33;1.05;;;21.20;99.90;;;;;;5090307;28;20192;-67
2021/06/09 11:28:48;;;;;;;0.57;0.57;;;21.30;99.90;;;;;;5090203;28;20158;-67
2021/06/09 11:31:23;;;;;;;0.70;0.70;;;21.60;99.90;;;;;;5090245;28;20176;-67
2021/06/09 11:33:59;;;;;;;0.43;0.43;;;22.00;99.90;;;;;;5090291;28;20173;-67
2021/06/09 11:36:39;;;;;;;3.60;0.80;;;22.40;99.90;;;;;;5090302;28;20191;-67
2021/06/09 11:39:10;;;;;;;0.40;0.40;;;23.40;99.90;;;;;;5071992;28;20159;-67
2021/06/09 11:41:44;;;;;;;3.25;2.08;;;24.60;99.90;;;;;;5089851;28;20577;-67
2021/06/09 11:44:35;;;;;;;0.82;0.70;;;26.20;99.90;;;;;;5090131;28;20160;-67
2021/06/09 11:47:22;;;;;;;1.98;1.80;;;27.40;99.90;;;;;;5089544;28;20199;-67
2021/06/09 11:49:50;;;;;;;1.00;0.98;;;27.60;99.90;;;;;;5089857;28;20170;-67
2021/06/09 11:52:17;;;;;;;1.10;1.00;;;28.10;99.90;;;;;;5090013;28;20220;-67
2021/06/09 11:54:43;;;;;;;2.90;1.55;;;29.20;99.90;;;;;;5089654;28;20155;-67
2021/06/09 11:57:18;;;;;;;1.02;0.93;;;28.90;99.90;;;;;;5089687;28;20197;-67
2021/06/09 11:59:46;;;;;;;2.65;1.50;;;28.60;99.90;;;;;;5088858;28;20163;-67
2021/06/09 12:02:24;;;;;;;2.03;0.38;;;29.40;99.90;;;;;;5071644;28;20248;-67
2021/06/09 12:04:52;;;;;;;25.42;2.42;;;30.00;99.90;;;;;;5089772;28;20193;-67
2021/06/09 12:07:30;;;;;;;0.85;0.85;;;30.00;99.90;;;;;;5089642;28;20198;-68
2021/06/09 12:10:02;;;;;;;1.33;1.23;;;30.70;99.90;;;;;;5080938;28;20215;-67
2021/06/09 12:12:31;;;;;;;1.45;1.35;;;30.50;99.90;;;;;;5079217;28;20167;-67
2021/06/09 12:15:04;;;;;;;2.92;1.20;;;28.80;99.90;;;;;;5089454;28;20160;-67
2021/06/09 12:17:33;;;;;;;2.83;1.02;;;27.90;99.90;;;;;;5089545;28;20159;-67
2021/06/09 12:20:12;;;;;;;3.45;1.77;;;27.30;99.90;;;;;;5071421;28;20164;-67
2021/06/09 12:22:48;;;;;;;2.08;0.43;;;27.30;99.90;;;;;;5089530;28;20187;-67
2021/06/09 12:25:24;;;;;;;0.93;0.93;;;27.10;99.90;;;;;;5071019;28;20202;-67
2021/06/09 12:28:02;;;;;;;1.15;1.08;;;26.80;99.90;;;;;;5089217;28;20213;-67
2021/06/09 12:30:29;;;;;;;1.85;0.90;;;27.30;99.90;;;;;;5089461;28;20174;-67
2021/06/09 12:32:55;;;;;;;1.73;0.95;;;27.60;99.90;;;;;;5071086;28;20171;-67
2021/06/09 12:35:22;;;;;;;0.93;0.85;;;27.10;99.90;;;;;;5089282;28;20247;-67
2021/06/09 12:37:59;;;;;;;0.70;0.70;;;26.90;99.90;;;;;;5088964;28;20207;-67
2021/06/09 12:40:31;;;;;;;1.67;0.90;;;27.00;99.90;;;;;;5089083;28;20230;-67
2021/06/09 12:43:00;;;;;;;1.15;1.05;;;26.90;99.90;;;;;;5089073;28;20208;-67
2021/06/09 12:45:28;;;;;;;1.23;0.98;;;26.70;99.90;;;;;;5088966;28;20275;-67
2021/06/09 12:47:56;;;;;;;1.25;0.93;;;26.70;99.90;;;;;;5089144;28;20152;-67
2021/06/09 12:50:33;;;;;;;0.70;0.70;;;26.80;99.90;;;;;;5088924;28;20207;-67
2021/06/09 12:53:07;;;;;;;0.73;0.73;;;26.90;99.90;;;;;;5088991;28;20182;-67
2021/06/09 12:55:36;;;;;;;1.77;1.45;;;26.90;99.90;;;;;;5088909;28;20191;-67
2021/06/09 12:58:14;;;;;;;1.27;1.08;;;26.60;99.90;;;;;;5070093;28;20234;-67
2021/06/09 13:00:45;;;;;;;1.38;1.27;;;26.70;99.90;;;;;;5096616;28;20213;-67
2021/06/09 13:03:15;;;;;;;2.25;1.65;;;26.70;99.90;;;;;;5104424;28;20206;-67